MMTJ/TIJ METAR and TAF weather

Enter ICAO airport designator
Station Type Date Time Source
MMTJ METAR 2020/11/25 21:40 UTC NOAA

MMTJ 252140Z 28007KT 7SM SKC 18/11 A3008 RMK HZY


Station Type Date Time Source
MMTJ Decoded METAR 2020/11/25 21:40 UTC NOAA

Tijuana International Airport , Mexico (MMTJ) 32-33N 116-58W
Nov 25, 2020 - 04:40 PM EST / 2020.11.25 2140 UTC
Wind: from the W (280 degrees) at 8 MPH (7 KT):0
Visibility: 7 mile(s):0
Sky conditions: clear
Temperature: 64 F (18 C)
Dew Point: 51 F (11 C)
Relative Humidity: 63%
Pressure (altimeter): 30.08 in. Hg (1018 hPa)
ob: MMTJ 252140Z 28007KT 7SM SKC 18/11 A3008 RMK HZY
cycle: 21

Station Type Date Time Source
MMTJ TAF 2020/11/25 18:51 UTC NOAA

TAF MMTJ 251644Z 2518/2624 29010KT P6SM SCT020 TX19/2520Z TN07/2613Z
FM260300 00000KT 6SM HZ SCT015
BECMG 2605/2606 4SM BR HZ BKN010
TEMPO 2610/2614 2SM BR HZ
FM261500 00000KT 4SM HZ BKN015
FM261700 23008KT 6SM HZ SCT018

Example: see airport list